Terminal Aerodrome Forecast
Issued by NWS

Home | Current Version | Previous Version | Text Only | Print | Product List | Glossary On
Versions: 1 2 3 4 5 6 7 8 9 10 11 12 13 14 15
866
FTUS46 KLOX 232332
TAFWJF
TAF
KWJF 232332Z 2400/2424 23020G25KT P6SM SKC
     FM240400 24014KT P6SM SKC
     FM240600 25012KT P6SM SKC
     FM241200 VRB03KT P6SM SKC=

USA.gov is the U.S. government's official web portal to all federal, state and local government web resources and services.